• Join FlightAware (Why Join?)
  • Login
  • US Flag 
11:53AM EDT


 

Airport Tracker/Info


-or-


 

Live Flight TrackerFlight Track Log ✈ FSR411 ✈ 25-Feb-2014 ✈ KMMU - KCLT

Flight Track Log - Related Links

Times and Time Zones

All times are in EST time to prevent confusion due to time zone crossing. See the FSR411 flight status page for this flight to view local times or setup timezone preferences in your user account.

Time Position Orientation Groundspeed Altitude Reporting Facility
EST Latitude Longitude Course Direction KTS MPH feet Rate Location/Type
08:33PM 40.7500 -74.4333 176° South 197 227 2,100  Level New York TRACON
08:35PM 40.6386 -74.4219 176° South 196 226 10,200 2,880 Climbing New York Center
08:36PM 40.6275 -74.5089 260° West 226 260 11,500 2,700 Climbing New York Center
08:37PM 40.5778 -74.6236 240° Southwest 311 358 15,600 3,480 Climbing New York Center
08:38PM 40.5308 -74.7275 239° Southwest 334 384 18,500 2,520 Climbing New York Center
08:39PM 40.4797 -74.8147 232° Southwest 339 390 20,700 1,980 Climbing New York Center
08:40PM 40.4222 -74.9122 232° Southwest 339 390 22,500 1,500 Climbing New York Center
08:41PM 40.3647 -75.0039 231° Southwest 344 396 23,800 1,260 Climbing New York Center
08:42PM 40.3050 -75.1011 231° Southwest 339 390 25,100 1,620 Climbing New York Center
08:43PM 40.2431 -75.1978 230° Southwest 339 390 27,100 2,100 Climbing New York Center
08:44PM 40.1808 -75.2997 231° Southwest 349 402 29,300 2,400 Climbing New York Center
08:45PM 40.1100 -75.4092 230° Southwest 361 415 31,900 2,280 Climbing New York Center
08:46PM 40.0414 -75.5050 227° Southwest 366 421 33,900 1,740 Climbing New York Center
08:47PM 39.9728 -75.6033 228° Southwest 371 427 35,400 1,380 Climbing New York Center
08:48PM 39.9042 -75.7014 228° Southwest 371 427 36,700 1,260 Climbing New York Center
08:49PM 39.8414 -75.8025 231° Southwest 371 427 38,000 1,200 Climbing New York Center
08:50PM 39.7767 -75.9031 230° Southwest 371 427 39,100 720 Climbing New York Center
08:52PM 39.6711 -76.0714 231° Southwest 375 432 40,000 300 Climbing Washington Center
08:53PM 39.5997 -76.1786 229° Southwest 380 437 40,000  Level Washington Center
08:54PM 39.5283 -76.2911 231° Southwest 393 452 40,000  Level Washington Center
08:55PM 39.4567 -76.4006 230° Southwest 401 461 40,000  Level Washington Center
08:56PM 39.3892 -76.5125 232° Southwest 401 461 40,000  Level Washington Center
08:57PM 39.3217 -76.6083 228° Southwest 401 461 40,000  Level Washington Center
08:58PM 39.2456 -76.7278 231° Southwest 398 458 40,000  Level Washington Center
08:59PM 39.1739 -76.8206 225° Southwest 398 458 40,000  Level Washington Center
09:00PM 39.0956 -76.9236 226° Southwest 404 465 40,000  Level Washington Center
09:01PM 39.0175 -77.0236 225° Southwest 399 459 40,000  Level Washington Center
09:02PM 38.9411 -77.1236 226° Southwest 399 459 40,000  Level Washington Center
09:03PM 38.8647 -77.2233 225° Southwest 393 452 40,000  Level Washington Center
09:04PM 38.7864 -77.3228 225° Southwest 399 459 40,000  Level Washington Center
09:05PM 38.7078 -77.4219 225° Southwest 399 459 40,000  Level Washington Center
09:06PM 38.6247 -77.5342 227° Southwest 399 459 40,000  Level Washington Center
09:07PM 38.5458 -77.6331 224° Southwest 399 459 40,000  Level Washington Center
09:08PM 38.4669 -77.7317 224° Southwest 394 453 40,000  Level Washington Center
09:09PM 38.3861 -77.8247 222° Southwest 394 453 40,000  Level Washington Center
09:10PM 38.3008 -77.9175 221° Southwest 399 459 40,000  Level Washington Center
09:11PM 38.2178 -78.0125 222° Southwest 406 467 40,000  Level Washington Center
09:12PM 38.1303 -78.1075 221° Southwest 406 467 40,000  Level Washington Center
09:13PM 38.0469 -78.1994 221° Southwest 401 461 40,000  Level Washington Center
09:14PM 37.9764 -78.2814 222° Southwest 394 453 40,000  Level Washington Center
09:15PM 37.8886 -78.3756 220° Southwest 399 459 40,000  Level Washington Center
09:16PM 37.8031 -78.4697 221° Southwest 399 459 40,000  Level Washington Center
09:17PM 37.7194 -78.5583 220° Southwest 399 459 40,000  Level Washington Center
09:18PM 37.6231 -78.6622 220° Southwest 405 466 40,000  Level Washington Center
09:19PM 37.5372 -78.7556 221° Southwest 405 466 40,000  Level Washington Center
09:20PM 37.4533 -78.8464 221° Southwest 405 466 40,000  Level Washington Center
09:21PM 37.3675 -78.9367 220° Southwest 410 472 40,000  Level Washington Center
09:22PM 37.2814 -79.0269 220° Southwest 410 472 40,000 -480 Level Washington Center
09:23PM 37.2039 -79.1094 220° Southwest 410 472 39,100 -1,260 Descending Washington Center
09:24PM 37.1219 -79.1969 220° Southwest 410 472 37,500 -1,560 Descending Washington Center
09:25PM 37.0403 -79.2817 220° Southwest 400 460 36,000 -1,500 Descending Washington Center
09:26PM 36.9581 -79.3686 220° Southwest 395 455 34,500 -1,620 Descending Washington Center
09:27PM 36.8739 -79.4581 220° Southwest 395 455 32,900 -1,560 Descending Washington Center
09:28PM 36.7919 -79.5422 219° Southwest 395 455 31,400 -1,680 Descending Washington Center
09:29PM 36.7011 -79.6386 220° Southwest 400 460 29,600 -1,620 Descending Washington Center
09:32PM 36.4228 -79.9156 219° Southwest 407 468 24,900 -1,380 Descending Atlanta Center
09:33PM 36.3356 -79.9872 214° Southwest 381 438 24,100 -600 Descending Atlanta Center
09:34PM 36.2542 -80.0531 213° Southwest 340 391 23,700 -1,260 Descending Atlanta Center
09:35PM 36.1772 -80.1211 216° Southwest 347 399 21,600 -2,160 Descending Atlanta Center
09:36PM 36.1000 -80.1867 214° Southwest 341 392 19,400 -2,160 Descending Atlanta Center
09:37PM 36.0350 -80.2436 215° Southwest 335 386 17,300 -2,100 Descending Atlanta Center
09:38PM 35.9658 -80.3008 214° Southwest 329 379 15,300 -1,620 Descending Atlanta Center
09:38PM 35.9253 -80.3411 219° Southwest 303 349 15,000 -960 Descending Atlanta Center
09:39PM 35.9050 -80.3600 217° Southwest 301 346 14,600 -1,320 Descending Atlanta Center
09:39PM 35.8969 -80.3628 196° South 322 371 14,300 -1,440 Descending Atlanta Center
09:40PM 35.8361 -80.4219 218° Southwest 286 329 13,000 -1,440 Descending Atlanta Center
09:40PM 35.8258 -80.4275 204° Southwest 303 349 12,900 -1,200 Descending Atlanta Center
09:41PM 35.7544 -80.4844 213° Southwest 353 406 11,800 -1,200 Descending Atlanta Center
09:41PM 35.7442 -80.4925 212° Southwest 325 374 11,700 -900 Descending Atlanta Center
09:42PM 35.6811 -80.5439 214° Southwest 350 403 11,000 -720 Descending Atlanta Center
09:42PM 35.6647 -80.5600 219° Southwest 343 395 11,000  Level Atlanta Center
09:43PM 35.6017 -80.6111 213° Southwest 346 398 11,000  Level Atlanta Center
09:43PM 35.5831 -80.6247 211° Southwest 349 402 11,000  Level Atlanta Center
09:44PM 35.5219 -80.6783 216° Southwest 351 404 11,000  Level Atlanta Center
09:44PM 35.5036 -80.6917 211° Southwest 349 402 11,000  Level Atlanta Center
09:45PM 35.4242 -80.7614 216° Southwest 349 402 11,000 -600 Level Atlanta Center
09:46PM 35.3475 -80.7847 194° South 294 338 9,900 -1,140 Descending Atlanta Center
09:46PM 35.3433 -80.7875 209° Southwest 314 361 9,900 -900 Level Atlanta Center
09:47PM 35.2683 -80.7903 182° South 268 308 9,000 -900 Descending Atlanta Center
09:47PM 35.2644 -80.7931 210° Southwest 298 343 9,000 -1,560 Level Atlanta Center
09:48PM 35.1917 -80.8036 187° South 288 331 7,400 -1,800 Descending Atlanta Center
09:49PM 35.1231 -80.8139 187° South 248 285 5,500 -1,800 Descending Atlanta Center
09:50PM 35.0806 -80.8636 224° Southwest 246 283 3,900 -1,260 Descending Atlanta Center
09:51PM 35.1114 -80.9311 299° West 260 299 2,900 -1,140 Descending Atlanta Center
09:52PM 35.1678 -80.9339 358° North 162 186 1,500 -1,440 Descending Atlanta Center
09:54PM 35.2000 -80.9333 352° North  Level FlightAware Approximate
10:01PM 35.2137 -80.9491 352° North  Level Estimated